sensor_id;sensor_type;location;lat;lon;timestamp;pressure;altitude;pressure_sealevel;temperature
70533;BMP180;58088;51.186;17.130;2022-09-27T00:01:05;98868.80;;;12.28
70533;BMP180;58088;51.186;17.130;2022-09-27T00:03:32;98867.20;;;12.20
70533;BMP180;58088;51.186;17.130;2022-09-27T00:06:06;98858.60;;;12.20
70533;BMP180;58088;51.186;17.130;2022-09-27T00:08:35;98864.40;;;12.20
70533;BMP180;58088;51.186;17.130;2022-09-27T00:11:09;98857.40;;;12.20
70533;BMP180;58088;51.186;17.130;2022-09-27T00:13:38;98855.40;;;12.20
70533;BMP180;58088;51.186;17.130;2022-09-27T00:16:04;98850.20;;;12.20
70533;BMP180;58088;51.186;17.130;2022-09-27T00:18:32;98850.00;;;12.20
70533;BMP180;58088;51.186;17.130;2022-09-27T00:21:11;98848.40;;;12.26
70533;BMP180;58088;51.186;17.130;2022-09-27T00:23:39;98843.00;;;12.30
70533;BMP180;58088;51.186;17.130;2022-09-27T00:26:09;98837.60;;;12.30
70533;BMP180;58088;51.186;17.130;2022-09-27T00:28:36;98840.00;;;12.30
70533;BMP180;58088;51.186;17.130;2022-09-27T00:31:03;98839.40;;;12.30
70533;BMP180;58088;51.186;17.130;2022-09-27T00:33:29;98830.40;;;12.30
70533;BMP180;58088;51.186;17.130;2022-09-27T00:36:04;98822.20;;;12.30
70533;BMP180;58088;51.186;17.130;2022-09-27T00:38:30;98819.20;;;12.24
70533;BMP180;58088;51.186;17.130;2022-09-27T00:40:56;98817.60;;;12.20
70533;BMP180;58088;51.186;17.130;2022-09-27T00:43:23;98814.20;;;12.20
70533;BMP180;58088;51.186;17.130;2022-09-27T00:45:55;98812.80;;;12.20
70533;BMP180;58088;51.186;17.130;2022-09-27T00:48:27;98809.20;;;12.20
70533;BMP180;58088;51.186;17.130;2022-09-27T00:51:13;98804.20;;;12.20
70533;BMP180;58088;51.186;17.130;2022-09-27T00:53:48;98801.20;;;12.20
70533;BMP180;58088;51.186;17.130;2022-09-27T00:56:25;98802.20;;;12.20
70533;BMP180;58088;51.186;17.130;2022-09-27T00:59:00;98810.40;;;12.20
70533;BMP180;58088;51.186;17.130;2022-09-27T01:01:28;98815.00;;;12.10
70533;BMP180;58088;51.186;17.130;2022-09-27T01:04:07;98821.60;;;12.10
70533;BMP180;58088;51.186;17.130;2022-09-27T01:06:34;98810.20;;;12.02
70533;BMP180;58088;51.186;17.130;2022-09-27T01:09:05;98802.40;;;12.10
70533;BMP180;58088;51.186;17.130;2022-09-27T01:30:12;98770.60;;;12.00
70533;BMP180;58088;51.186;17.130;2022-09-27T01:38:43;98751.40;;;11.90
70533;BMP180;58088;51.186;17.130;2022-09-27T01:41:59;98748.20;;;11.90
70533;BMP180;58088;51.186;17.130;2022-09-27T01:47:41;98737.20;;;11.80
70533;BMP180;58088;51.186;17.130;2022-09-27T01:50:38;98727.20;;;11.80
70533;BMP180;58088;51.186;17.130;2022-09-27T01:53:19;98729.80;;;11.80
70533;BMP180;58088;51.186;17.130;2022-09-27T01:56:15;98721.40;;;11.80
70533;BMP180;58088;51.186;17.130;2022-09-27T02:01:33;98714.20;;;11.80
70533;BMP180;58088;51.186;17.130;2022-09-27T02:04:04;98709.80;;;11.80
70533;BMP180;58088;51.186;17.130;2022-09-27T02:07:16;98702.60;;;11.70
70533;BMP180;58088;51.186;17.130;2022-09-27T02:12:30;98703.80;;;11.66
70533;BMP180;58088;51.186;17.130;2022-09-27T02:15:10;98704.20;;;11.60
70533;BMP180;58088;51.186;17.130;2022-09-27T02:17:56;98694.60;;;11.60
70533;BMP180;58088;51.186;17.130;2022-09-27T02:20:30;98689.80;;;11.60
70533;BMP180;58088;51.186;17.130;2022-09-27T02:23:20;98692.00;;;11.58
70533;BMP180;58088;51.186;17.130;2022-09-27T02:25:58;98687.80;;;11.56
70533;BMP180;58088;51.186;17.130;2022-09-27T02:28:40;98684.00;;;11.50
70533;BMP180;58088;51.186;17.130;2022-09-27T02:31:09;98679.20;;;11.50
70533;BMP180;58088;51.186;17.130;2022-09-27T02:33:51;98686.80;;;11.50
70533;BMP180;58088;51.186;17.130;2022-09-27T02:36:20;98684.60;;;11.50
70533;BMP180;58088;51.186;17.130;2022-09-27T02:38:46;98668.00;;;11.40
70533;BMP180;58088;51.186;17.130;2022-09-27T02:41:16;98660.60;;;11.40
70533;BMP180;58088;51.186;17.130;2022-09-27T02:43:47;98651.40;;;11.40
70533;BMP180;58088;51.186;17.130;2022-09-27T02:52:33;98650.40;;;11.40
70533;BMP180;58088;51.186;17.130;2022-09-27T02:56:06;98656.80;;;11.40
70533;BMP180;58088;51.186;17.130;2022-09-27T03:02:26;98652.40;;;11.40
70533;BMP180;58088;51.186;17.130;2022-09-27T03:05:20;98648.40;;;11.48
70533;BMP180;58088;51.186;17.130;2022-09-27T03:07:48;98650.00;;;11.50
70533;BMP180;58088;51.186;17.130;2022-09-27T03:10:21;98650.00;;;11.50
70533;BMP180;58088;51.186;17.130;2022-09-27T03:12:48;98648.40;;;11.50
70533;BMP180;58088;51.186;17.130;2022-09-27T03:15:15;98647.60;;;11.50
70533;BMP180;58088;51.186;17.130;2022-09-27T03:18:10;98639.60;;;11.42
70533;BMP180;58088;51.186;17.130;2022-09-27T03:20:39;98646.60;;;11.40
70533;BMP180;58088;51.186;17.130;2022-09-27T03:23:19;98640.60;;;11.40
70533;BMP180;58088;51.186;17.130;2022-09-27T03:25:46;98635.20;;;11.40
70533;BMP180;58088;51.186;17.130;2022-09-27T03:28:12;98631.60;;;11.40
70533;BMP180;58088;51.186;17.130;2022-09-27T03:30:40;98621.00;;;11.38
70533;BMP180;58088;51.186;17.130;2022-09-27T03:33:08;98621.80;;;11.34
70533;BMP180;58088;51.186;17.130;2022-09-27T03:35:43;98619.20;;;11.30
70533;BMP180;58088;51.186;17.130;2022-09-27T03:38:10;98612.60;;;11.30
70533;BMP180;58088;51.186;17.130;2022-09-27T03:40:36;98612.00;;;11.20
70533;BMP180;58088;51.186;17.130;2022-09-27T03:43:02;98601.80;;;11.20
70533;BMP180;58088;51.186;17.130;2022-09-27T03:45:29;98602.00;;;11.20
70533;BMP180;58088;51.186;17.130;2022-09-27T03:47:56;98595.00;;;11.20
70533;BMP180;58088;51.186;17.130;2022-09-27T03:50:22;98597.40;;;11.20
70533;BMP180;58088;51.186;17.130;2022-09-27T03:52:48;98597.40;;;11.16
70533;BMP180;58088;51.186;17.130;2022-09-27T03:55:15;98594.60;;;11.10
70533;BMP180;58088;51.186;17.130;2022-09-27T03:57:45;98586.80;;;11.10
70533;BMP180;58088;51.186;17.130;2022-09-27T04:00:16;98589.60;;;11.10
70533;BMP180;58088;51.186;17.130;2022-09-27T04:02:43;98594.20;;;11.00
70533;BMP180;58088;51.186;17.130;2022-09-27T04:05:26;98594.20;;;11.00
70533;BMP180;58088;51.186;17.130;2022-09-27T04:07:56;98590.40;;;11.10
70533;BMP180;58088;51.186;17.130;2022-09-27T04:10:23;98592.40;;;11.10
70533;BMP180;58088;51.186;17.130;2022-09-27T04:12:50;98592.00;;;11.10
70533;BMP180;58088;51.186;17.130;2022-09-27T04:15:17;98590.20;;;11.10
70533;BMP180;58088;51.186;17.130;2022-09-27T04:17:50;98590.40;;;11.20
70533;BMP180;58088;51.186;17.130;2022-09-27T04:20:35;98593.60;;;11.20
70533;BMP180;58088;51.186;17.130;2022-09-27T04:23:07;98588.20;;;11.20
70533;BMP180;58088;51.186;17.130;2022-09-27T04:25:34;98589.00;;;11.20
70533;BMP180;58088;51.186;17.130;2022-09-27T04:28:06;98583.40;;;11.20
70533;BMP180;58088;51.186;17.130;2022-09-27T04:30:33;98585.80;;;11.20
70533;BMP180;58088;51.186;17.130;2022-09-27T04:33:21;98590.60;;;11.24
70533;BMP180;58088;51.186;17.130;2022-09-27T04:36:16;98591.60;;;11.30
70533;BMP180;58088;51.186;17.130;2022-09-27T04:39:09;98590.80;;;11.30
70533;BMP180;58088;51.186;17.130;2022-09-27T04:41:37;98583.00;;;11.30
70533;BMP180;58088;51.186;17.130;2022-09-27T04:44:03;98584.40;;;11.30
70533;BMP180;58088;51.186;17.130;2022-09-27T04:46:29;98591.60;;;11.30
70533;BMP180;58088;51.186;17.130;2022-09-27T04:48:59;98586.80;;;11.30
70533;BMP180;58088;51.186;17.130;2022-09-27T04:51:26;98593.20;;;11.30
70533;BMP180;58088;51.186;17.130;2022-09-27T04:53:55;98584.60;;;11.40
70533;BMP180;58088;51.186;17.130;2022-09-27T04:56:22;98572.20;;;11.30
70533;BMP180;58088;51.186;17.130;2022-09-27T04:58:48;98578.60;;;11.40
70533;BMP180;58088;51.186;17.130;2022-09-27T05:01:15;98572.80;;;11.40
70533;BMP180;58088;51.186;17.130;2022-09-27T05:04:01;98570.40;;;11.38
70533;BMP180;58088;51.186;17.130;2022-09-27T05:06:27;98569.20;;;11.40
70533;BMP180;58088;51.186;17.130;2022-09-27T05:08:56;98565.00;;;11.54
70533;BMP180;58088;51.186;17.130;2022-09-27T05:11:48;98560.20;;;11.70
70533;BMP180;58088;51.186;17.130;2022-09-27T05:14:33;98563.40;;;11.70
70533;BMP180;58088;51.186;17.130;2022-09-27T05:17:09;98578.60;;;11.70
70533;BMP180;58088;51.186;17.130;2022-09-27T05:20:14;98569.40;;;11.70
70533;BMP180;58088;51.186;17.130;2022-09-27T05:22:51;98569.20;;;11.70
70533;BMP180;58088;51.186;17.130;2022-09-27T05:25:18;98576.40;;;11.70
70533;BMP180;58088;51.186;17.130;2022-09-27T05:27:44;98571.40;;;11.60
70533;BMP180;58088;51.186;17.130;2022-09-27T05:30:10;98576.60;;;11.60
70533;BMP180;58088;51.186;17.130;2022-09-27T05:32:46;98569.60;;;11.68
70533;BMP180;58088;51.186;17.130;2022-09-27T05:35:33;98566.60;;;11.60
70533;BMP180;58088;51.186;17.130;2022-09-27T05:38:01;98562.60;;;11.60
70533;BMP180;58088;51.186;17.130;2022-09-27T05:40:29;98563.60;;;11.60
70533;BMP180;58088;51.186;17.130;2022-09-27T05:42:56;98565.00;;;11.60
70533;BMP180;58088;51.186;17.130;2022-09-27T05:45:23;98568.20;;;11.60
70533;BMP180;58088;51.186;17.130;2022-09-27T05:47:54;98564.80;;;11.50
70533;BMP180;58088;51.186;17.130;2022-09-27T05:50:22;98558.00;;;11.56
70533;BMP180;58088;51.186;17.130;2022-09-27T05:52:48;98563.60;;;11.60
70533;BMP180;58088;51.186;17.130;2022-09-27T05:55:15;98566.40;;;11.60
70533;BMP180;58088;51.186;17.130;2022-09-27T05:57:41;98562.80;;;11.60
70533;BMP180;58088;51.186;17.130;2022-09-27T06:00:09;98566.20;;;11.70
70533;BMP180;58088;51.186;17.130;2022-09-27T06:02:38;98557.80;;;11.70
70533;BMP180;58088;51.186;17.130;2022-09-27T06:05:13;98550.80;;;11.70
70533;BMP180;58088;51.186;17.130;2022-09-27T06:07:40;98551.20;;;11.72
70533;BMP180;58088;51.186;17.130;2022-09-27T06:10:12;98541.80;;;11.80
70533;BMP180;58088;51.186;17.130;2022-09-27T06:12:38;98535.60;;;11.80
70533;BMP180;58088;51.186;17.130;2022-09-27T06:15:15;98525.40;;;11.80
70533;BMP180;58088;51.186;17.130;2022-09-27T06:17:43;98525.20;;;11.88
70533;BMP180;58088;51.186;17.130;2022-09-27T06:20:35;98537.60;;;11.90
70533;BMP180;58088;51.186;17.130;2022-09-27T06:23:23;98516.60;;;11.90
70533;BMP180;58088;51.186;17.130;2022-09-27T06:25:50;98515.40;;;11.94
70533;BMP180;58088;51.186;17.130;2022-09-27T06:28:37;98504.60;;;11.92
70533;BMP180;58088;51.186;17.130;2022-09-27T06:31:07;98510.80;;;12.00
70533;BMP180;58088;51.186;17.130;2022-09-27T06:33:52;98516.20;;;12.00
70533;BMP180;58088;51.186;17.130;2022-09-27T06:36:21;98533.80;;;12.08
70533;BMP180;58088;51.186;17.130;2022-09-27T06:38:50;98531.40;;;12.10
70533;BMP180;58088;51.186;17.130;2022-09-27T06:41:23;98543.60;;;12.20
70533;BMP180;58088;51.186;17.130;2022-09-27T06:44:05;98553.20;;;12.20
70533;BMP180;58088;51.186;17.130;2022-09-27T06:46:53;98555.20;;;12.20
70533;BMP180;58088;51.186;17.130;2022-09-27T06:49:32;98548.80;;;12.10
70533;BMP180;58088;51.186;17.130;2022-09-27T06:52:02;98538.00;;;12.10
70533;BMP180;58088;51.186;17.130;2022-09-27T06:54:31;98534.80;;;12.10
70533;BMP180;58088;51.186;17.130;2022-09-27T06:56:59;98542.80;;;12.18
70533;BMP180;58088;51.186;17.130;2022-09-27T06:59:25;98542.20;;;12.20
70533;BMP180;58088;51.186;17.130;2022-09-27T07:02:28;98546.00;;;12.20
70533;BMP180;58088;51.186;17.130;2022-09-27T07:05:30;98533.20;;;12.20
70533;BMP180;58088;51.186;17.130;2022-09-27T07:08:26;98534.00;;;12.30
70533;BMP180;58088;51.186;17.130;2022-09-27T07:11:05;98531.00;;;12.30
70533;BMP180;58088;51.186;17.130;2022-09-27T07:13:33;98530.60;;;12.40
70533;BMP180;58088;51.186;17.130;2022-09-27T07:16:02;98531.80;;;12.40
70533;BMP180;58088;51.186;17.130;2022-09-27T07:18:29;98531.00;;;12.42
70533;BMP180;58088;51.186;17.130;2022-09-27T07:20:55;98531.60;;;12.50
70533;BMP180;58088;51.186;17.130;2022-09-27T07:23:22;98530.60;;;12.50
70533;BMP180;58088;51.186;17.130;2022-09-27T07:25:48;98532.60;;;12.50
70533;BMP180;58088;51.186;17.130;2022-09-27T07:28:18;98536.00;;;12.50
70533;BMP180;58088;51.186;17.130;2022-09-27T07:30:46;98535.80;;;12.50
70533;BMP180;58088;51.186;17.130;2022-09-27T07:33:13;98529.60;;;12.50
70533;BMP180;58088;51.186;17.130;2022-09-27T07:35:40;98532.40;;;12.50
70533;BMP180;58088;51.186;17.130;2022-09-27T07:38:11;98536.20;;;12.58
70533;BMP180;58088;51.186;17.130;2022-09-27T07:40:42;98531.00;;;12.60
70533;BMP180;58088;51.186;17.130;2022-09-27T07:43:08;98533.60;;;12.60
70533;BMP180;58088;51.186;17.130;2022-09-27T07:45:35;98529.00;;;12.62
70533;BMP180;58088;51.186;17.130;2022-09-27T07:48:20;98526.00;;;12.70
70533;BMP180;58088;51.186;17.130;2022-09-27T07:51:18;98520.40;;;12.70
70533;BMP180;58088;51.186;17.130;2022-09-27T07:53:51;98531.80;;;12.70
70533;BMP180;58088;51.186;17.130;2022-09-27T07:56:46;98530.80;;;12.78
70533;BMP180;58088;51.186;17.130;2022-09-27T07:59:15;98522.60;;;12.80
70533;BMP180;58088;51.186;17.130;2022-09-27T08:01:41;98529.40;;;12.80
70533;BMP180;58088;51.186;17.130;2022-09-27T08:04:07;98524.60;;;12.80
70533;BMP180;58088;51.186;17.130;2022-09-27T08:06:33;98525.80;;;12.88
70533;BMP180;58088;51.186;17.130;2022-09-27T08:09:00;98532.40;;;12.90
70533;BMP180;58088;51.186;17.130;2022-09-27T08:11:29;98524.40;;;12.90
70533;BMP180;58088;51.186;17.130;2022-09-27T08:13:55;98528.00;;;13.00
70533;BMP180;58088;51.186;17.130;2022-09-27T08:16:27;98521.80;;;13.00
70533;BMP180;58088;51.186;17.130;2022-09-27T08:19:12;98526.40;;;13.10
70533;BMP180;58088;51.186;17.130;2022-09-27T08:21:44;98519.80;;;13.10
70533;BMP180;58088;51.186;17.130;2022-09-27T08:24:21;98521.40;;;13.10
70533;BMP180;58088;51.186;17.130;2022-09-27T08:27:10;98509.80;;;13.10
70533;BMP180;58088;51.186;17.130;2022-09-27T08:29:56;98508.20;;;13.20
70533;BMP180;58088;51.186;17.130;2022-09-27T08:32:23;98503.60;;;13.20
70533;BMP180;58088;51.186;17.130;2022-09-27T08:34:50;98510.20;;;13.28
70533;BMP180;58088;51.186;17.130;2022-09-27T08:37:16;98511.00;;;13.30
70533;BMP180;58088;51.186;17.130;2022-09-27T08:39:42;98509.00;;;13.30
70533;BMP180;58088;51.186;17.130;2022-09-27T08:48:40;98524.00;;;13.40
70533;BMP180;58088;51.186;17.130;2022-09-27T08:51:13;98529.80;;;13.40
70533;BMP180;58088;51.186;17.130;2022-09-27T08:53:54;98529.00;;;13.40
70533;BMP180;58088;51.186;17.130;2022-09-27T08:56:23;98535.00;;;13.40
70533;BMP180;58088;51.186;17.130;2022-09-27T08:59:05;98525.60;;;13.40
70533;BMP180;58088;51.186;17.130;2022-09-27T09:01:34;98526.60;;;13.40
70533;BMP180;58088;51.186;17.130;2022-09-27T09:04:24;98528.40;;;13.40
70533;BMP180;58088;51.186;17.130;2022-09-27T09:07:23;98527.00;;;13.40
70533;BMP180;58088;51.186;17.130;2022-09-27T09:19:54;98529.40;;;13.60
70533;BMP180;58088;51.186;17.130;2022-09-27T09:23:08;98528.40;;;13.68
70533;BMP180;58088;51.186;17.130;2022-09-27T09:35:24;98513.00;;;14.00
70533;BMP180;58088;51.186;17.130;2022-09-27T09:38:03;98513.60;;;14.00
70533;BMP180;58088;51.186;17.130;2022-09-27T09:40:43;98503.40;;;14.00
70533;BMP180;58088;51.186;17.130;2022-09-27T09:43:29;98496.60;;;14.10
70533;BMP180;58088;51.186;17.130;2022-09-27T09:46:08;98494.20;;;14.10
70533;BMP180;58088;51.186;17.130;2022-09-27T09:49:17;98493.40;;;14.20
70533;BMP180;58088;51.186;17.130;2022-09-27T09:51:51;98491.80;;;14.30
70533;BMP180;58088;51.186;17.130;2022-09-27T09:54:46;98487.80;;;14.38
70533;BMP180;58088;51.186;17.130;2022-09-27T09:57:30;98489.60;;;14.50
70533;BMP180;58088;51.186;17.130;2022-09-27T10:00:04;98495.40;;;14.66
70533;BMP180;58088;51.186;17.130;2022-09-27T10:02:44;98490.20;;;14.70
70533;BMP180;58088;51.186;17.130;2022-09-27T10:05:18;98484.80;;;14.80
70533;BMP180;58088;51.186;17.130;2022-09-27T10:07:48;98488.00;;;14.90
70533;BMP180;58088;51.186;17.130;2022-09-27T10:10:18;98486.00;;;15.00
70533;BMP180;58088;51.186;17.130;2022-09-27T10:13:16;98481.00;;;15.00
70533;BMP180;58088;51.186;17.130;2022-09-27T10:15:57;98480.80;;;15.10
70533;BMP180;58088;51.186;17.130;2022-09-27T10:18:26;98473.40;;;15.10
70533;BMP180;58088;51.186;17.130;2022-09-27T10:21:01;98473.60;;;15.18
70533;BMP180;58088;51.186;17.130;2022-09-27T10:23:29;98474.00;;;15.20
70533;BMP180;58088;51.186;17.130;2022-09-27T10:26:28;98472.00;;;15.26
70533;BMP180;58088;51.186;17.130;2022-09-27T10:28:55;98467.40;;;15.24
70533;BMP180;58088;51.186;17.130;2022-09-27T10:31:48;98470.60;;;15.20
70533;BMP180;58088;51.186;17.130;2022-09-27T10:39:51;98461.20;;;15.30
70533;BMP180;58088;51.186;17.130;2022-09-27T10:42:32;98467.60;;;15.40
70533;BMP180;58088;51.186;17.130;2022-09-27T10:45:31;98465.80;;;15.50
70533;BMP180;58088;51.186;17.130;2022-09-27T10:48:04;98463.00;;;15.50
70533;BMP180;58088;51.186;17.130;2022-09-27T10:50:38;98463.40;;;15.40
70533;BMP180;58088;51.186;17.130;2022-09-27T10:53:24;98467.60;;;15.48
70533;BMP180;58088;51.186;17.130;2022-09-27T10:56:01;98466.80;;;15.50
70533;BMP180;58088;51.186;17.130;2022-09-27T10:58:32;98469.00;;;15.58
70533;BMP180;58088;51.186;17.130;2022-09-27T11:01:07;98471.60;;;15.60
70533;BMP180;58088;51.186;17.130;2022-09-27T11:03:55;98475.80;;;15.58
70533;BMP180;58088;51.186;17.130;2022-09-27T11:08:49;98476.40;;;15.50
70533;BMP180;58088;51.186;17.130;2022-09-27T11:11:22;98476.20;;;15.50
70533;BMP180;58088;51.186;17.130;2022-09-27T11:14:02;98474.40;;;15.50
70533;BMP180;58088;51.186;17.130;2022-09-27T11:26:07;98464.20;;;15.34
70533;BMP180;58088;51.186;17.130;2022-09-27T11:38:10;98459.40;;;15.50
70533;BMP180;58088;51.186;17.130;2022-09-27T11:43:59;98451.80;;;15.50
70533;BMP180;58088;51.186;17.130;2022-09-27T11:46:35;98448.00;;;15.50
70533;BMP180;58088;51.186;17.130;2022-09-27T11:49:36;98444.60;;;15.50
70533;BMP180;58088;51.186;17.130;2022-09-27T11:55:03;98440.40;;;15.50
70533;BMP180;58088;51.186;17.130;2022-09-27T11:57:42;98437.00;;;15.50
70533;BMP180;58088;51.186;17.130;2022-09-27T12:00:23;98430.80;;;15.58
70533;BMP180;58088;51.186;17.130;2022-09-27T12:06:13;98428.40;;;15.70
70533;BMP180;58088;51.186;17.130;2022-09-27T12:09:13;98430.40;;;15.80
70533;BMP180;58088;51.186;17.130;2022-09-27T12:11:49;98431.00;;;15.90
70533;BMP180;58088;51.186;17.130;2022-09-27T12:14:33;98424.80;;;15.90
70533;BMP180;58088;51.186;17.130;2022-09-27T12:17:05;98424.80;;;15.90
70533;BMP180;58088;51.186;17.130;2022-09-27T12:19:38;98426.00;;;16.00
70533;BMP180;58088;51.186;17.130;2022-09-27T12:22:31;98427.00;;;16.00
70533;BMP180;58088;51.186;17.130;2022-09-27T12:25:00;98425.40;;;16.00
70533;BMP180;58088;51.186;17.130;2022-09-27T12:27:59;98420.20;;;16.00
70533;BMP180;58088;51.186;17.130;2022-09-27T12:30:30;98420.80;;;16.10
70533;BMP180;58088;51.186;17.130;2022-09-27T12:33:27;98423.80;;;16.10
70533;BMP180;58088;51.186;17.130;2022-09-27T12:36:16;98422.40;;;16.10
70533;BMP180;58088;51.186;17.130;2022-09-27T12:39:16;98422.40;;;16.10
70533;BMP180;58088;51.186;17.130;2022-09-27T12:41:55;98417.80;;;16.10
70533;BMP180;58088;51.186;17.130;2022-09-27T12:44:40;98410.60;;;16.10
70533;BMP180;58088;51.186;17.130;2022-09-27T12:50:06;98408.00;;;16.10
70533;BMP180;58088;51.186;17.130;2022-09-27T12:52:50;98418.80;;;16.00
70533;BMP180;58088;51.186;17.130;2022-09-27T12:56:36;98419.40;;;16.10
70533;BMP180;58088;51.186;17.130;2022-09-27T13:02:15;98420.00;;;16.04
70533;BMP180;58088;51.186;17.130;2022-09-27T13:13:04;98409.60;;;15.90
70533;BMP180;58088;51.186;17.130;2022-09-27T13:15:59;98406.20;;;15.90
70533;BMP180;58088;51.186;17.130;2022-09-27T13:18:55;98402.20;;;15.90
70533;BMP180;58088;51.186;17.130;2022-09-27T13:29:49;98404.00;;;15.80
70533;BMP180;58088;51.186;17.130;2022-09-27T13:32:22;98394.00;;;15.80
70533;BMP180;58088;51.186;17.130;2022-09-27T13:35:24;98392.80;;;15.80
70533;BMP180;58088;51.186;17.130;2022-09-27T13:38:03;98397.00;;;15.80
70533;BMP180;58088;51.186;17.130;2022-09-27T13:40:40;98387.20;;;15.80
70533;BMP180;58088;51.186;17.130;2022-09-27T13:46:34;98391.40;;;15.80
70533;BMP180;58088;51.186;17.130;2022-09-27T13:49:10;98392.20;;;15.80
70533;BMP180;58088;51.186;17.130;2022-09-27T13:52:32;98398.00;;;15.80
70533;BMP180;58088;51.186;17.130;2022-09-27T13:55:46;98390.40;;;15.80
70533;BMP180;58088;51.186;17.130;2022-09-27T13:59:00;98387.00;;;15.80
70533;BMP180;58088;51.186;17.130;2022-09-27T14:01:50;98379.00;;;15.80
70533;BMP180;58088;51.186;17.130;2022-09-27T14:04:35;98380.20;;;15.80
70533;BMP180;58088;51.186;17.130;2022-09-27T14:07:12;98377.60;;;15.90
70533;BMP180;58088;51.186;17.130;2022-09-27T14:09:46;98376.40;;;15.90
70533;BMP180;58088;51.186;17.130;2022-09-27T14:12:22;98374.60;;;15.90
70533;BMP180;58088;51.186;17.130;2022-09-27T14:14:53;98372.60;;;16.00
70533;BMP180;58088;51.186;17.130;2022-09-27T14:17:21;98375.20;;;16.00
70533;BMP180;58088;51.186;17.130;2022-09-27T14:20:31;98377.80;;;16.00
70533;BMP180;58088;51.186;17.130;2022-09-27T14:23:00;98384.80;;;16.02
70533;BMP180;58088;51.186;17.130;2022-09-27T14:25:31;98392.00;;;16.00
70533;BMP180;58088;51.186;17.130;2022-09-27T14:27:58;98392.60;;;16.10
70533;BMP180;58088;51.186;17.130;2022-09-27T14:30:33;98391.20;;;16.10
70533;BMP180;58088;51.186;17.130;2022-09-27T14:33:31;98395.40;;;16.16
70533;BMP180;58088;51.186;17.130;2022-09-27T14:36:30;98390.60;;;16.20
70533;BMP180;58088;51.186;17.130;2022-09-27T14:39:32;98381.40;;;16.20
70533;BMP180;58088;51.186;17.130;2022-09-27T14:42:20;98379.20;;;16.20
70533;BMP180;58088;51.186;17.130;2022-09-27T14:44:48;98376.20;;;16.20
70533;BMP180;58088;51.186;17.130;2022-09-27T14:47:23;98381.60;;;16.20
70533;BMP180;58088;51.186;17.130;2022-09-27T14:49:54;98382.60;;;16.24
70533;BMP180;58088;51.186;17.130;2022-09-27T14:52:31;98377.80;;;16.30
70533;BMP180;58088;51.186;17.130;2022-09-27T14:55:05;98387.60;;;16.30
70533;BMP180;58088;51.186;17.130;2022-09-27T14:57:33;98391.20;;;16.26
70533;BMP180;58088;51.186;17.130;2022-09-27T15:02:42;98380.40;;;16.26
70533;BMP180;58088;51.186;17.130;2022-09-27T15:05:19;98386.00;;;16.20
70533;BMP180;58088;51.186;17.130;2022-09-27T15:07:47;98386.60;;;16.24
70533;BMP180;58088;51.186;17.130;2022-09-27T15:10:27;98391.40;;;16.28
70533;BMP180;58088;51.186;17.130;2022-09-27T15:12:57;98391.20;;;16.24
70533;BMP180;58088;51.186;17.130;2022-09-27T15:15:48;98396.00;;;16.20
70533;BMP180;58088;51.186;17.130;2022-09-27T15:18:41;98398.80;;;16.20
70533;BMP180;58088;51.186;17.130;2022-09-27T15:21:29;98396.20;;;16.20
70533;BMP180;58088;51.186;17.130;2022-09-27T15:23:56;98397.80;;;16.20
70533;BMP180;58088;51.186;17.130;2022-09-27T15:26:40;98399.60;;;16.20
70533;BMP180;58088;51.186;17.130;2022-09-27T15:29:20;98395.00;;;16.20
70533;BMP180;58088;51.186;17.130;2022-09-27T15:32:05;98400.40;;;16.20
70533;BMP180;58088;51.186;17.130;2022-09-27T15:34:33;98403.60;;;16.18
70533;BMP180;58088;51.186;17.130;2022-09-27T15:37:02;98402.00;;;16.16
70533;BMP180;58088;51.186;17.130;2022-09-27T15:39:37;98406.40;;;16.10
70533;BMP180;58088;51.186;17.130;2022-09-27T15:42:13;98399.20;;;16.10
70533;BMP180;58088;51.186;17.130;2022-09-27T15:44:49;98398.00;;;16.10
70533;BMP180;58088;51.186;17.130;2022-09-27T15:49:58;98402.20;;;16.00
70533;BMP180;58088;51.186;17.130;2022-09-27T15:52:51;98407.80;;;16.00
70533;BMP180;58088;51.186;17.130;2022-09-27T15:55:21;98413.40;;;16.00
70533;BMP180;58088;51.186;17.130;2022-09-27T15:57:57;98415.60;;;15.94
70533;BMP180;58088;51.186;17.130;2022-09-27T16:00:25;98417.40;;;15.90
70533;BMP180;58088;51.186;17.130;2022-09-27T16:02:51;98414.80;;;15.90
70533;BMP180;58088;51.186;17.130;2022-09-27T16:05:20;98420.60;;;15.90
70533;BMP180;58088;51.186;17.130;2022-09-27T16:07:52;98411.60;;;15.90
70533;BMP180;58088;51.186;17.130;2022-09-27T16:10:29;98413.00;;;15.90
70533;BMP180;58088;51.186;17.130;2022-09-27T16:12:58;98407.60;;;15.90
70533;BMP180;58088;51.186;17.130;2022-09-27T16:15:25;98415.40;;;15.90
70533;BMP180;58088;51.186;17.130;2022-09-27T16:17:51;98416.40;;;15.90
70533;BMP180;58088;51.186;17.130;2022-09-27T16:20:21;98418.40;;;15.88
70533;BMP180;58088;51.186;17.130;2022-09-27T16:22:51;98421.00;;;15.90
70533;BMP180;58088;51.186;17.130;2022-09-27T16:25:18;98421.20;;;15.90
70533;BMP180;58088;51.186;17.130;2022-09-27T16:27:46;98425.80;;;16.00
70533;BMP180;58088;51.186;17.130;2022-09-27T16:30:15;98426.60;;;16.00
70533;BMP180;58088;51.186;17.130;2022-09-27T16:32:44;98427.20;;;15.90
70533;BMP180;58088;51.186;17.130;2022-09-27T16:35:13;98451.20;;;15.80
70533;BMP180;58088;51.186;17.130;2022-09-27T16:37:40;98461.20;;;15.70
70533;BMP180;58088;51.186;17.130;2022-09-27T16:40:08;98467.40;;;15.40
70533;BMP180;58088;51.186;17.130;2022-09-27T16:42:35;98462.80;;;15.20
70533;BMP180;58088;51.186;17.130;2022-09-27T16:45:05;98466.60;;;15.00
70533;BMP180;58088;51.186;17.130;2022-09-27T16:47:33;98468.00;;;14.88
70533;BMP180;58088;51.186;17.130;2022-09-27T16:50:00;98460.00;;;14.70
70533;BMP180;58088;51.186;17.130;2022-09-27T16:52:46;98471.60;;;14.50
70533;BMP180;58088;51.186;17.130;2022-09-27T16:55:16;98471.20;;;14.46
70533;BMP180;58088;51.186;17.130;2022-09-27T16:57:47;98472.60;;;14.30
70533;BMP180;58088;51.186;17.130;2022-09-27T17:00:14;98477.80;;;14.30
70533;BMP180;58088;51.186;17.130;2022-09-27T17:02:40;98480.20;;;14.20
70533;BMP180;58088;51.186;17.130;2022-09-27T17:05:09;98484.40;;;14.10